createdAt,value
2019-04-28T00:02:56.158Z,12.90
2019-04-28T00:08:01.673Z,12.90
2019-04-28T00:13:07.444Z,12.80
2019-04-28T00:18:14.567Z,12.70
2019-04-28T00:23:34.668Z,12.70
2019-04-28T00:28:41.647Z,12.80
2019-04-28T00:33:47.385Z,12.70
2019-04-28T00:38:52.845Z,12.50
2019-04-28T00:43:58.310Z,12.40
2019-04-28T00:49:03.830Z,12.40
2019-04-28T00:54:09.409Z,12.50
2019-04-28T00:59:33.731Z,12.40
2019-04-28T01:04:41.013Z,12.30
2019-04-28T01:09:51.504Z,12.20
2019-04-28T01:14:58.015Z,12.30
2019-04-28T01:20:05.939Z,12.20
2019-04-28T01:25:11.897Z,12.10
2019-04-28T01:30:27.204Z,12.10
2019-04-28T01:35:33.334Z,12.10
2019-04-28T01:40:39.242Z,12.20
2019-04-28T01:45:45.051Z,12.20
2019-04-28T01:50:50.750Z,12.30
2019-04-28T01:55:56.607Z,12.40
2019-04-28T02:01:02.150Z,12.40
2019-04-28T02:06:07.722Z,12.20
2019-04-28T02:11:13.318Z,12.00
2019-04-28T02:16:19.485Z,11.80
2019-04-28T02:21:43.916Z,11.80
2019-04-28T02:26:50.400Z,11.70
2019-04-28T02:31:56.531Z,11.60
2019-04-28T02:37:02.268Z,11.70
2019-04-28T02:42:10.656Z,11.80
2019-04-28T02:47:14.882Z,11.80
2019-04-28T02:52:37.859Z,11.70
2019-04-28T02:57:43.413Z,11.90
2019-04-28T03:02:51.322Z,11.90
2019-04-28T03:07:55.964Z,12.10
2019-04-28T03:13:01.652Z,11.90
2019-04-28T03:18:07.070Z,11.90
2019-04-28T03:23:12.662Z,11.90
2019-04-28T03:28:25.401Z,11.80
2019-04-28T03:33:34.305Z,11.70
2019-04-28T03:38:40.591Z,11.70
2019-04-28T03:43:45.603Z,11.70
2019-04-28T03:48:51.271Z,11.80
2019-04-28T03:53:56.809Z,11.80
2019-04-28T03:59:02.201Z,11.70
2019-04-28T04:04:07.655Z,11.70
2019-04-28T04:09:13.296Z,11.70
2019-04-28T04:14:31.010Z,11.70
2019-04-28T04:19:37.309Z,11.60
2019-04-28T04:24:42.771Z,11.60
2019-04-28T04:29:50.809Z,11.60
2019-04-28T04:34:55.318Z,11.70
2019-04-28T04:40:01.638Z,11.70
2019-04-28T04:45:10.364Z,11.70
2019-04-28T04:50:14.998Z,11.80
2019-04-28T04:55:21.197Z,11.60
2019-04-28T05:00:43.888Z,11.60
2019-04-28T05:05:50.174Z,11.80
2019-04-28T05:10:55.685Z,12.00
2019-04-28T05:16:01.175Z,12.20
2019-04-28T05:21:10.548Z,12.30
2019-04-28T05:26:15.967Z,12.50
2019-04-28T05:31:24.287Z,12.70
2019-04-28T05:36:31.709Z,12.90
2019-04-28T05:41:35.690Z,13.10
2019-04-28T05:46:41.138Z,13.30
2019-04-28T05:51:47.973Z,13.60
2019-04-28T05:57:17.088Z,13.60
2019-04-28T06:02:30.662Z,13.80
2019-04-28T06:08:07.505Z,13.80
2019-04-28T06:13:13.005Z,14.00
2019-04-28T06:18:18.403Z,14.10
2019-04-28T06:23:24.304Z,14.30
2019-04-28T06:28:29.938Z,14.60
2019-04-28T06:33:36.409Z,14.90
2019-04-28T06:38:41.776Z,15.00
2019-04-28T06:43:47.746Z,15.10
2019-04-28T06:48:53.238Z,15.10
2019-04-28T06:53:58.755Z,15.00
2019-04-28T06:59:04.151Z,15.10
2019-04-28T07:04:09.639Z,15.00
2019-04-28T07:09:15.312Z,15.20
2019-04-28T07:14:21.287Z,15.20
2019-04-28T07:19:26.776Z,15.30
2019-04-28T07:24:32.202Z,15.30
2019-04-28T07:29:37.606Z,15.40
2019-04-28T07:34:43.014Z,15.30
2019-04-28T07:39:48.656Z,15.30
2019-04-28T07:44:54.084Z,15.30
2019-04-28T07:49:59.455Z,15.30
2019-04-28T07:55:05.734Z,15.50
2019-04-28T08:00:13.497Z,15.30
2019-04-28T08:05:19.106Z,15.50
2019-04-28T08:10:24.886Z,15.40
2019-04-28T08:15:30.964Z,15.30
2019-04-28T08:20:36.356Z,15.30
2019-04-28T08:25:41.920Z,15.10
2019-04-28T08:30:47.472Z,15.10
2019-04-28T08:35:52.866Z,14.80
2019-04-28T08:40:58.242Z,14.70
2019-04-28T08:46:03.673Z,14.60
2019-04-28T08:51:09.145Z,14.50
2019-04-28T08:56:14.609Z,14.80
2019-04-28T09:01:20.037Z,14.60
2019-04-28T09:06:25.462Z,14.60
2019-04-28T09:11:30.935Z,14.70
2019-04-28T09:16:36.320Z,14.90
2019-04-28T09:21:42.727Z,14.90
2019-04-28T09:26:48.198Z,15.10
2019-04-28T09:31:54.235Z,15.30
2019-04-28T09:37:00.260Z,15.30
2019-04-28T09:42:23.488Z,15.60
2019-04-28T09:47:28.975Z,15.70
2019-04-28T09:52:34.611Z,15.40
2019-04-28T09:57:40.287Z,15.70
2019-04-28T10:02:45.775Z,15.80
2019-04-28T10:07:51.218Z,15.90
2019-04-28T10:12:56.648Z,15.70
2019-04-28T10:18:02.370Z,15.60
2019-04-28T10:23:08.522Z,15.60
2019-04-28T10:28:14.164Z,15.70
2019-04-28T10:33:19.643Z,15.90
2019-04-28T10:38:25.163Z,15.80
2019-04-28T10:43:31.824Z,16.00
2019-04-28T10:48:37.436Z,16.20
2019-04-28T10:53:43.219Z,16.80
2019-04-28T10:58:50.678Z,17.00
2019-04-28T11:03:58.630Z,17.40
2019-04-28T11:09:30.630Z,17.40
2019-04-28T11:14:35.191Z,17.70
2019-04-28T11:19:41.240Z,18.50
2019-04-28T11:24:47.030Z,18.70
2019-04-28T11:29:52.630Z,18.30
2019-04-28T11:35:21.385Z,17.70
2019-04-28T11:40:19.061Z,17.60
2019-04-28T11:45:25.077Z,18.70
2019-04-28T11:50:30.964Z,19.40
2019-04-28T11:55:36.371Z,19.80
2019-04-28T12:00:41.906Z,20.70
2019-04-28T12:05:48.026Z,21.10
2019-04-28T12:11:05.702Z,22.20
2019-04-28T12:16:41.179Z,23.00
2019-04-28T12:21:46.696Z,22.50
2019-04-28T12:26:52.309Z,23.60
2019-04-28T12:31:57.694Z,23.20
2019-04-28T12:37:03.336Z,22.30
2019-04-28T12:42:08.746Z,21.30
2019-04-28T12:47:14.210Z,21.90
2019-04-28T12:52:19.771Z,22.40
2019-04-28T12:57:25.437Z,23.10
2019-04-28T13:03:01.696Z,23.30
2019-04-28T13:08:07.112Z,23.60
2019-04-28T13:13:12.667Z,22.60
2019-04-28T13:18:18.114Z,22.80
2019-04-28T13:23:23.510Z,22.80
2019-04-28T13:28:28.919Z,22.90
2019-04-28T13:33:34.336Z,23.50
2019-04-28T13:38:39.787Z,24.30
2019-04-28T13:43:45.195Z,22.70
2019-04-28T13:48:50.624Z,21.60
2019-04-28T13:53:56.024Z,20.90
2019-04-28T13:59:15.659Z,20.40
2019-04-28T14:04:30.525Z,19.50
2019-04-28T14:09:38.432Z,20.70
2019-04-28T14:14:43.056Z,20.70
2019-04-28T14:19:48.506Z,20.20
2019-04-28T14:24:54.075Z,19.80
2019-04-28T14:29:59.616Z,19.80
2019-04-28T14:35:05.348Z,19.20
2019-04-28T14:40:11.240Z,18.70
2019-04-28T14:45:17.033Z,18.60
2019-04-28T14:50:22.688Z,18.40
2019-04-28T14:55:28.297Z,18.10
2019-04-28T15:00:38.445Z,17.80
2019-04-28T15:05:53.035Z,17.90
2019-04-28T15:11:03.580Z,17.60
2019-04-28T15:16:09.254Z,17.60
2019-04-28T15:21:14.796Z,17.50
2019-04-28T15:26:20.341Z,17.50
2019-04-28T15:31:25.794Z,17.30
2019-04-28T15:36:31.267Z,17.50
2019-04-28T15:41:36.643Z,17.40
2019-04-28T15:46:42.176Z,17.40
2019-04-28T15:51:47.748Z,17.10
2019-04-28T15:56:53.164Z,16.90
2019-04-28T16:01:58.634Z,16.70
2019-04-28T16:07:04.361Z,16.80
2019-04-28T16:12:09.947Z,16.70
2019-04-28T16:17:15.414Z,16.80
2019-04-28T16:22:21.079Z,16.90
2019-04-28T16:27:26.765Z,16.80
2019-04-28T16:32:32.154Z,16.80
2019-04-28T16:37:39.003Z,16.80
2019-04-28T16:42:50.331Z,16.80
2019-04-28T16:47:55.902Z,16.70
2019-04-28T16:53:01.344Z,16.80
2019-04-28T16:58:30.404Z,16.70
2019-04-28T17:03:37.253Z,16.60
2019-04-28T17:08:44.618Z,16.40
2019-04-28T17:13:50.184Z,16.40
2019-04-28T17:18:55.659Z,16.40
2019-04-28T17:24:01.029Z,16.60
2019-04-28T17:29:06.642Z,16.70
2019-04-28T17:34:12.034Z,16.60
2019-04-28T17:39:21.954Z,16.60
2019-04-28T17:44:27.463Z,16.50
2019-04-28T17:49:37.798Z,16.40
2019-04-28T17:54:43.406Z,16.40
2019-04-28T17:59:50.413Z,16.30
2019-04-28T18:05:02.710Z,16.20
2019-04-28T18:10:10.728Z,16.20
2019-04-28T18:15:33.223Z,16.20
2019-04-28T18:20:38.625Z,16.20
2019-04-28T18:25:44.015Z,16.10
2019-04-28T18:31:11.635Z,16.10
2019-04-28T18:36:32.167Z,16.10
2019-04-28T18:42:14.556Z,16.00
2019-04-28T18:47:18.566Z,16.10
2019-04-28T18:52:24.099Z,16.10
2019-04-28T18:57:29.531Z,16.00
2019-04-28T19:02:41.446Z,15.90
2019-04-28T19:08:11.979Z,15.90
2019-04-28T19:13:21.889Z,16.00
2019-04-28T19:18:32.483Z,16.00
2019-04-28T19:23:38.645Z,16.00
2019-04-28T19:28:44.061Z,16.00
2019-04-28T19:33:49.519Z,15.90
2019-04-28T19:39:02.938Z,15.90
2019-04-28T19:44:01.987Z,15.80
2019-04-28T19:49:07.399Z,15.80
2019-04-28T19:54:13.506Z,15.70
2019-04-28T19:59:26.463Z,15.70
2019-04-28T20:04:32.064Z,15.80
2019-04-28T20:09:37.720Z,15.70
2019-04-28T20:14:43.308Z,15.60
2019-04-28T20:19:48.716Z,15.40
2019-04-28T20:24:54.108Z,15.50
2019-04-28T20:29:59.698Z,15.40
2019-04-28T20:35:05.565Z,15.20
2019-04-28T20:40:16.224Z,15.00
2019-04-28T20:45:21.635Z,14.90
2019-04-28T20:50:27.021Z,15.10
2019-04-28T20:55:32.559Z,14.90
2019-04-28T21:00:38.086Z,14.90
2019-04-28T21:05:43.506Z,14.70
2019-04-28T21:10:49.105Z,14.60
2019-04-28T21:15:54.908Z,14.70
2019-04-28T21:21:00.346Z,14.70
2019-04-28T21:26:05.940Z,14.80
2019-04-28T21:31:11.327Z,14.80
2019-04-28T21:36:16.792Z,14.60
2019-04-28T21:41:22.171Z,14.60
2019-04-28T21:46:44.187Z,14.50
2019-04-28T21:51:49.566Z,14.50
2019-04-28T21:56:55.161Z,14.40
2019-04-28T22:02:00.789Z,14.50
2019-04-28T22:07:06.362Z,14.60
2019-04-28T22:12:11.937Z,14.50
2019-04-28T22:17:17.418Z,14.50
2019-04-28T22:22:22.951Z,14.50
2019-04-28T22:27:31.906Z,14.60
2019-04-28T22:32:37.664Z,14.50
2019-04-28T22:37:43.027Z,14.60
2019-04-28T22:42:48.499Z,14.60
2019-04-28T22:47:54.034Z,14.50
2019-04-28T22:52:59.688Z,14.40
2019-04-28T22:58:18.719Z,14.40
2019-04-28T23:03:32.740Z,14.40
2019-04-28T23:08:39.326Z,14.40
2019-04-28T23:13:44.961Z,14.40
2019-04-28T23:18:50.849Z,14.50
2019-04-28T23:24:33.127Z,14.60
2019-04-28T23:29:38.530Z,14.60
2019-04-28T23:34:44.082Z,14.60
2019-04-28T23:39:49.513Z,14.50
2019-04-28T23:44:55.010Z,14.50
2019-04-28T23:50:00.618Z,14.50
2019-04-28T23:55:07.317Z,14.50
